createdAt,value
2018-02-19T00:01:18.067Z,24.87
2018-02-19T00:03:45.654Z,23.53
2018-02-19T00:06:13.269Z,23.37
2018-02-19T00:08:40.924Z,22.73
2018-02-19T00:11:08.497Z,22.63
2018-02-19T00:13:36.135Z,21.97
2018-02-19T00:16:03.727Z,22.27
2018-02-19T00:18:31.335Z,21.80
2018-02-19T00:20:59.259Z,21.63
2018-02-19T00:23:26.930Z,22.10
2018-02-19T00:25:54.499Z,21.87
2018-02-19T00:28:22.111Z,22.17
2018-02-19T00:30:49.710Z,21.03
2018-02-19T00:33:17.293Z,21.17
2018-02-19T00:35:44.957Z,22.20
2018-02-19T00:38:12.512Z,21.17
2018-02-19T00:40:41.018Z,22.03
2018-02-19T00:43:08.674Z,21.97
2018-02-19T00:45:36.250Z,21.97
2018-02-19T00:48:03.832Z,23.27
2018-02-19T00:50:31.857Z,22.07
2018-02-19T00:52:59.438Z,22.50
2018-02-19T00:55:27.074Z,21.13
2018-02-19T00:57:54.738Z,21.17
2018-02-19T01:00:22.322Z,21.50
2018-02-19T01:02:49.919Z,22.97
2018-02-19T01:05:17.541Z,23.43
2018-02-19T01:07:45.197Z,21.83
2018-02-19T01:10:12.777Z,22.73
2018-02-19T01:12:40.414Z,22.20
2018-02-19T01:15:07.976Z,22.43
2018-02-19T01:17:35.538Z,21.43
2018-02-19T01:20:03.512Z,22.57
2018-02-19T01:22:31.110Z,22.50
2018-02-19T01:24:58.677Z,21.73
2018-02-19T01:27:26.328Z,20.97
2018-02-19T01:29:53.888Z,20.13
2018-02-19T01:32:21.522Z,21.47
2018-02-19T01:34:49.163Z,22.30
2018-02-19T01:37:16.759Z,22.13
2018-02-19T01:39:44.346Z,22.37
2018-02-19T01:42:12.210Z,21.07
2018-02-19T01:44:39.785Z,22.23
2018-02-19T01:47:07.378Z,21.97
2018-02-19T01:49:35.025Z,22.57
2018-02-19T01:52:02.837Z,22.13
2018-02-19T01:54:30.418Z,22.37
2018-02-19T01:56:58.045Z,22.50
2018-02-19T01:59:25.631Z,22.47
2018-02-19T02:01:53.328Z,22.13
2018-02-19T02:04:20.991Z,21.33
2018-02-19T02:06:48.891Z,21.03
2018-02-19T02:09:16.481Z,20.70
2018-02-19T02:11:44.198Z,20.77
2018-02-19T02:14:11.770Z,21.10
2018-02-19T02:16:39.341Z,22.00
2018-02-19T02:19:06.995Z,20.80
2018-02-19T02:21:34.564Z,19.93
2018-02-19T02:24:02.158Z,21.47
2018-02-19T02:26:29.793Z,19.90
2018-02-19T02:28:58.251Z,20.90
2018-02-19T02:31:25.829Z,19.63
2018-02-19T02:33:53.465Z,21.00
2018-02-19T02:36:21.042Z,21.60
2018-02-19T02:38:48.617Z,20.63
2018-02-19T02:41:16.264Z,20.40
2018-02-19T02:43:43.865Z,19.97
2018-02-19T02:46:11.468Z,20.23
2018-02-19T02:48:39.343Z,19.97
2018-02-19T02:51:06.980Z,19.10
2018-02-19T02:53:34.901Z,20.23
2018-02-19T02:56:02.529Z,18.90
2018-02-19T02:58:30.205Z,20.70
2018-02-19T03:00:57.794Z,20.07
2018-02-19T03:03:25.446Z,19.77
2018-02-19T03:05:53.050Z,20.10
2018-02-19T03:08:20.706Z,20.10
2018-02-19T03:10:48.313Z,20.37
2018-02-19T03:13:15.894Z,21.80
2018-02-19T03:15:43.452Z,20.80
2018-02-19T03:18:11.089Z,20.70
2018-02-19T03:20:38.659Z,22.40
2018-02-19T03:23:06.305Z,23.40
2018-02-19T03:25:33.936Z,24.57
2018-02-19T03:28:01.578Z,25.53
2018-02-19T03:30:29.270Z,25.27
2018-02-19T03:32:56.910Z,28.07
2018-02-19T03:35:24.473Z,25.90
2018-02-19T03:37:52.046Z,23.73
2018-02-19T03:40:20.834Z,22.47
2018-02-19T03:42:48.413Z,22.43
2018-02-19T03:45:16.070Z,21.97
2018-02-19T03:47:43.721Z,20.50
2018-02-19T03:50:11.340Z,20.00
2018-02-19T03:52:39.408Z,23.60
2018-02-19T03:55:08.105Z,22.57
2018-02-19T03:57:35.668Z,23.33
2018-02-19T04:00:03.271Z,22.53
2018-02-19T04:02:30.988Z,20.90
2018-02-19T04:04:58.548Z,23.13
2018-02-19T04:07:26.192Z,24.03
2018-02-19T04:09:54.086Z,22.60
2018-02-19T04:12:21.658Z,22.30
2018-02-19T04:14:49.235Z,21.63
2018-02-19T04:17:17.552Z,21.53
2018-02-19T04:19:45.128Z,21.57
2018-02-19T04:22:12.753Z,23.20
2018-02-19T04:24:40.397Z,31.43
2018-02-19T04:27:07.979Z,31.40
2018-02-19T04:29:35.557Z,34.00
2018-02-19T04:32:03.189Z,33.67
2018-02-19T04:34:30.766Z,32.83
2018-02-19T04:36:58.365Z,23.60
2018-02-19T04:39:25.994Z,24.43
2018-02-19T04:41:53.576Z,21.53
2018-02-19T04:44:24.536Z,22.57
2018-02-19T04:46:52.471Z,21.80
2018-02-19T04:49:20.055Z,21.70
2018-02-19T04:51:47.613Z,20.73
2018-02-19T04:54:15.263Z,22.67
2018-02-19T04:56:42.946Z,22.43
2018-02-19T04:59:10.630Z,20.50
2018-02-19T05:01:38.344Z,19.17
2018-02-19T05:04:05.917Z,20.13
2018-02-19T05:06:33.551Z,21.97
2018-02-19T05:09:01.200Z,26.13
2018-02-19T05:11:28.772Z,26.13
2018-02-19T05:13:56.406Z,28.07
2018-02-19T05:16:24.032Z,26.87
2018-02-19T05:18:51.601Z,26.67
2018-02-19T05:21:19.190Z,26.13
2018-02-19T05:23:46.864Z,26.90
2018-02-19T05:26:14.463Z,27.00
2018-02-19T05:28:42.054Z,27.23
2018-02-19T05:31:09.688Z,27.47
2018-02-19T05:33:37.273Z,26.73
2018-02-19T05:36:04.841Z,27.50
2018-02-19T05:38:32.466Z,28.33
2018-02-19T05:41:00.131Z,26.23
2018-02-19T05:43:27.688Z,26.60
2018-02-19T05:45:55.818Z,28.83
2018-02-19T05:48:23.400Z,29.63
2018-02-19T05:50:51.012Z,30.73
2018-02-19T05:53:18.701Z,31.73
2018-02-19T05:55:46.285Z,33.47
2018-02-19T05:58:13.962Z,31.60
2018-02-19T06:00:41.575Z,26.77
2018-02-19T06:03:09.145Z,25.30
2018-02-19T06:05:36.736Z,28.10
2018-02-19T06:08:04.411Z,25.37
2018-02-19T06:10:32.075Z,27.53
2018-02-19T06:12:59.655Z,23.40
2018-02-19T06:15:27.281Z,23.23
2018-02-19T06:17:54.850Z,26.10
2018-02-19T06:20:22.444Z,27.00
2018-02-19T06:22:50.345Z,22.13
2018-02-19T06:25:17.930Z,21.20
2018-02-19T06:27:45.682Z,25.17
2018-02-19T06:30:13.365Z,21.33
2018-02-19T06:32:40.973Z,23.37
2018-02-19T06:35:08.570Z,24.27
2018-02-19T06:37:36.232Z,26.70
2018-02-19T06:40:03.849Z,25.23
2018-02-19T06:42:31.479Z,27.73
2018-02-19T06:44:59.195Z,28.00
2018-02-19T06:47:26.774Z,24.07
2018-02-19T06:49:54.342Z,25.27
2018-02-19T06:52:22.008Z,22.43
2018-02-19T06:54:49.584Z,25.53
2018-02-19T06:57:17.145Z,26.10
2018-02-19T06:59:45.459Z,27.77
2018-02-19T07:02:13.050Z,27.03
2018-02-19T07:04:40.694Z,22.27
2018-02-19T07:07:08.326Z,20.20
2018-02-19T07:09:35.982Z,20.17
2018-02-19T07:12:03.552Z,21.97
2018-02-19T07:14:31.182Z,24.53
2018-02-19T07:16:58.760Z,21.60
2018-02-19T07:19:26.330Z,20.00
2018-02-19T07:21:53.974Z,24.67
2018-02-19T07:24:21.553Z,25.10
2018-02-19T07:26:49.174Z,24.60
2018-02-19T07:29:16.818Z,23.70
2018-02-19T07:31:44.431Z,23.60
2018-02-19T07:34:12.083Z,27.67
2018-02-19T07:36:39.704Z,29.30
2018-02-19T07:39:07.287Z,29.27
2018-02-19T07:41:35.354Z,27.67
2018-02-19T07:44:02.985Z,24.50
2018-02-19T07:46:30.547Z,21.63
2018-02-19T07:48:58.146Z,19.73
2018-02-19T07:51:25.772Z,20.67
2018-02-19T07:53:53.337Z,20.73
2018-02-19T07:56:20.918Z,22.33
2018-02-19T07:58:48.714Z,25.77
2018-02-19T08:01:16.402Z,21.90
2018-02-19T08:03:44.446Z,22.20
2018-02-19T08:06:12.093Z,20.90
2018-02-19T08:08:39.664Z,22.07
2018-02-19T08:11:08.178Z,22.10
2018-02-19T08:13:35.809Z,22.03
2018-02-19T08:16:03.390Z,23.73
2018-02-19T08:18:30.987Z,24.77
2018-02-19T08:20:58.642Z,26.60
2018-02-19T08:23:26.209Z,26.70
2018-02-19T08:25:53.760Z,28.87
2018-02-19T08:28:21.458Z,27.63
2018-02-19T08:30:49.042Z,25.27
2018-02-19T08:33:16.687Z,30.87
2018-02-19T08:35:44.319Z,27.70
2018-02-19T08:38:11.976Z,30.83
2018-02-19T08:40:39.540Z,28.17
2018-02-19T08:43:07.164Z,31.20
2018-02-19T08:45:34.802Z,29.30
2018-02-19T08:48:02.387Z,25.03
2018-02-19T08:50:30.027Z,29.50
2018-02-19T08:52:57.674Z,27.40
2018-02-19T08:55:25.354Z,25.93
2018-02-19T08:57:53.038Z,23.37
2018-02-19T09:00:20.782Z,22.47
2018-02-19T09:02:48.466Z,29.07
2018-02-19T09:05:16.110Z,28.80
2018-02-19T09:07:43.693Z,32.43
2018-02-19T09:10:11.304Z,29.07
2018-02-19T09:12:38.987Z,30.50
2018-02-19T09:15:06.528Z,30.33
2018-02-19T09:17:34.185Z,27.67
2018-02-19T09:20:02.048Z,22.30
2018-02-19T09:22:29.718Z,22.93
2018-02-19T09:24:57.272Z,21.77
2018-02-19T09:27:24.909Z,20.43
2018-02-19T09:29:52.507Z,19.77
2018-02-19T09:32:20.101Z,21.03
2018-02-19T09:34:47.817Z,20.67
2018-02-19T09:37:15.387Z,19.87
2018-02-19T09:39:43.028Z,18.53
2018-02-19T09:42:10.743Z,17.60
2018-02-19T09:44:38.318Z,18.80
2018-02-19T09:47:05.919Z,17.30
2018-02-19T09:49:33.545Z,16.30
2018-02-19T09:52:01.123Z,17.63
2018-02-19T09:54:28.703Z,16.10
2018-02-19T09:56:56.347Z,16.03
2018-02-19T09:59:23.919Z,17.50
2018-02-19T10:01:51.498Z,19.67
2018-02-19T10:04:19.222Z,18.17
2018-02-19T10:06:46.867Z,19.77
2018-02-19T10:09:14.432Z,22.10
2018-02-19T10:11:42.878Z,21.33
2018-02-19T10:14:10.459Z,23.43
2018-02-19T10:16:38.031Z,23.53
2018-02-19T10:19:05.658Z,21.47
2018-02-19T10:21:33.235Z,18.83
2018-02-19T10:24:00.805Z,16.47
2018-02-19T10:26:28.454Z,12.90
2018-02-19T10:28:56.042Z,14.77
2018-02-19T10:31:23.621Z,13.50
2018-02-19T10:33:51.274Z,13.73
2018-02-19T10:36:18.845Z,14.77
2018-02-19T10:38:46.491Z,14.50
2018-02-19T10:41:14.112Z,12.83
2018-02-19T10:43:41.686Z,11.83
2018-02-19T10:46:09.296Z,12.63
2018-02-19T10:48:36.932Z,12.30
2018-02-19T10:51:04.598Z,12.87
2018-02-19T10:53:32.981Z,13.57
2018-02-19T10:56:00.641Z,16.17
2018-02-19T10:58:28.218Z,16.27
2018-02-19T11:00:55.784Z,14.00
2018-02-19T11:03:23.439Z,13.17
2018-02-19T11:05:51.138Z,12.30
2018-02-19T11:08:19.331Z,12.67
2018-02-19T11:10:46.978Z,13.90
2018-02-19T11:13:14.569Z,16.20
2018-02-19T11:15:42.137Z,14.83
2018-02-19T11:18:09.800Z,14.40
2018-02-19T11:20:37.367Z,13.70
2018-02-19T11:23:04.933Z,14.03
2018-02-19T11:25:32.578Z,14.70
2018-02-19T11:28:00.148Z,16.97
2018-02-19T11:30:27.716Z,14.00
2018-02-19T11:32:55.351Z,16.27
2018-02-19T11:35:22.951Z,16.77
2018-02-19T11:37:50.534Z,15.00
2018-02-19T11:40:18.150Z,16.00
2018-02-19T11:42:45.728Z,16.20
2018-02-19T11:45:13.293Z,15.30
2018-02-19T11:47:41.076Z,13.70
2018-02-19T11:50:09.038Z,15.63
2018-02-19T11:52:36.691Z,17.00
2018-02-19T11:55:04.328Z,14.90
2018-02-19T11:57:31.920Z,16.07
2018-02-19T11:59:59.491Z,16.90
2018-02-19T12:02:27.133Z,16.60
2018-02-19T12:04:54.720Z,19.97
2018-02-19T12:07:22.425Z,18.23
2018-02-19T12:09:50.057Z,16.03
2018-02-19T12:12:17.639Z,16.73
2018-02-19T12:14:45.231Z,17.97
2018-02-19T12:17:12.866Z,16.50
2018-02-19T12:19:40.537Z,20.07
2018-02-19T12:22:08.138Z,18.60
2018-02-19T12:24:35.807Z,21.30
2018-02-19T12:27:03.398Z,16.97
2018-02-19T12:29:31.042Z,15.03
2018-02-19T12:31:58.826Z,14.20
2018-02-19T12:34:26.400Z,15.23
2018-02-19T12:36:53.969Z,15.33
2018-02-19T12:39:21.614Z,13.57
2018-02-19T12:41:49.186Z,13.33
2018-02-19T12:44:16.762Z,13.57
2018-02-19T12:46:44.403Z,12.87
2018-02-19T12:49:11.979Z,14.57
2018-02-19T12:51:39.548Z,13.47
2018-02-19T12:54:07.847Z,13.50
2018-02-19T12:56:35.412Z,14.30
2018-02-19T12:59:03.017Z,13.17
2018-02-19T13:01:30.668Z,13.77
2018-02-19T13:03:58.310Z,14.43
2018-02-19T13:06:25.891Z,16.23
2018-02-19T13:08:53.740Z,14.27
2018-02-19T13:11:21.280Z,15.30
2018-02-19T13:13:48.857Z,15.17
2018-02-19T13:16:16.517Z,14.73
2018-02-19T13:18:44.122Z,14.00
2018-02-19T13:21:11.744Z,16.90
2018-02-19T13:23:39.353Z,17.57
2018-02-19T13:26:06.932Z,16.47
2018-02-19T13:28:34.525Z,15.10
2018-02-19T13:31:02.251Z,15.83
2018-02-19T13:33:29.908Z,14.80
2018-02-19T13:35:57.541Z,16.73
2018-02-19T13:38:25.168Z,16.90
2018-02-19T13:40:52.762Z,18.17
2018-02-19T13:43:20.410Z,18.27
2018-02-19T13:45:48.149Z,19.23
2018-02-19T13:48:15.849Z,18.70
2018-02-19T13:50:43.628Z,16.50
2018-02-19T13:53:11.460Z,14.87
2018-02-19T13:55:39.199Z,12.77
2018-02-19T13:58:06.922Z,11.43
2018-02-19T14:00:34.908Z,12.00
2018-02-19T14:03:02.598Z,13.60
2018-02-19T14:05:30.342Z,14.77
2018-02-19T14:07:58.161Z,12.83
2018-02-19T14:10:26.308Z,12.77
2018-02-19T14:12:53.984Z,10.13
2018-02-19T14:15:21.686Z,9.73
2018-02-19T14:17:49.260Z,8.70
2018-02-19T14:20:17.398Z,9.40
2018-02-19T14:22:45.014Z,10.80
2018-02-19T14:25:12.569Z,10.20
2018-02-19T14:27:40.148Z,12.03
2018-02-19T14:30:07.836Z,8.40
2018-02-19T14:32:35.480Z,10.80
2018-02-19T14:35:03.056Z,12.93
2018-02-19T14:37:30.771Z,16.00
2018-02-19T14:39:58.378Z,12.23
2018-02-19T14:42:25.945Z,8.33
2018-02-19T14:44:53.586Z,9.23
2018-02-19T14:47:21.150Z,9.80
2018-02-19T14:49:48.719Z,9.23
2018-02-19T14:52:16.342Z,9.40
2018-02-19T14:54:43.970Z,9.30
2018-02-19T14:57:11.542Z,9.30
2018-02-19T14:59:39.236Z,9.63
2018-02-19T15:02:06.824Z,10.93
2018-02-19T15:04:34.405Z,11.47
2018-02-19T15:07:02.121Z,9.80
2018-02-19T15:09:29.673Z,10.27
2018-02-19T15:11:57.410Z,9.87
2018-02-19T15:14:25.107Z,10.30
2018-02-19T15:16:52.678Z,9.60
2018-02-19T15:19:20.264Z,11.43
2018-02-19T15:21:47.882Z,9.90
2018-02-19T15:24:15.496Z,10.23
2018-02-19T15:26:43.279Z,11.17
2018-02-19T15:29:11.085Z,10.80
2018-02-19T15:31:38.669Z,11.13
2018-02-19T15:34:06.281Z,11.43
2018-02-19T15:36:33.926Z,12.67
2018-02-19T15:39:01.546Z,11.40
2018-02-19T15:41:29.153Z,13.13
2018-02-19T15:43:56.766Z,11.70
2018-02-19T15:46:24.395Z,11.57
2018-02-19T15:48:52.192Z,11.60
2018-02-19T15:51:20.959Z,10.53
2018-02-19T15:53:49.564Z,9.33
2018-02-19T15:56:17.206Z,8.80
2018-02-19T15:58:44.826Z,9.30
2018-02-19T16:01:12.404Z,10.17
2018-02-19T16:03:39.974Z,9.13
2018-02-19T16:06:07.594Z,9.27
2018-02-19T16:08:36.176Z,11.20
2018-02-19T16:11:03.873Z,10.77
2018-02-19T16:13:32.202Z,9.43
2018-02-19T16:16:00.185Z,10.20
2018-02-19T16:18:27.754Z,8.83
2018-02-19T16:20:55.428Z,10.93
2018-02-19T16:23:23.031Z,9.90
2018-02-19T16:25:51.020Z,9.80
2018-02-19T16:28:19.489Z,8.33
2018-02-19T16:30:47.445Z,11.73
2018-02-19T16:33:15.499Z,13.13
2018-02-19T16:35:43.133Z,11.33
2018-02-19T16:38:10.719Z,10.13
2018-02-19T16:40:38.336Z,10.77
2018-02-19T16:43:05.971Z,11.60
2018-02-19T16:45:33.551Z,13.33
2018-02-19T16:48:01.200Z,15.27
2018-02-19T16:50:28.813Z,15.10
2018-02-19T16:52:56.766Z,13.87
2018-02-19T16:55:24.418Z,13.67
2018-02-19T16:57:52.076Z,13.13
2018-02-19T17:00:19.644Z,19.97
2018-02-19T17:02:47.476Z,12.43
2018-02-19T17:05:15.343Z,10.97
2018-02-19T17:07:43.144Z,13.77
2018-02-19T17:10:11.040Z,13.13
2018-02-19T17:12:38.947Z,17.07
2018-02-19T17:15:06.729Z,13.57
2018-02-19T17:17:34.325Z,15.70
2018-02-19T17:20:01.959Z,20.30
2018-02-19T17:22:29.577Z,16.67
2018-02-19T17:24:57.159Z,18.23
2018-02-19T17:27:24.831Z,15.53
2018-02-19T17:29:52.397Z,15.77
2018-02-19T17:32:19.971Z,13.70
2018-02-19T17:34:47.837Z,30.13
2018-02-19T17:37:15.413Z,16.47
2018-02-19T17:39:43.114Z,23.07
2018-02-19T17:42:10.753Z,14.60
2018-02-19T17:44:38.345Z,13.43
2018-02-19T17:47:05.920Z,13.80
2018-02-19T17:49:33.596Z,13.77
2018-02-19T17:52:01.186Z,13.90
2018-02-19T17:54:28.763Z,13.03
2018-02-19T17:56:56.663Z,13.77
2018-02-19T17:59:24.236Z,11.17
2018-02-19T18:01:51.831Z,13.87
2018-02-19T18:04:19.514Z,14.60
2018-02-19T18:06:47.077Z,9.77
2018-02-19T18:09:14.659Z,11.40
2018-02-19T18:11:42.352Z,16.73
2018-02-19T18:14:09.999Z,12.00
2018-02-19T18:16:37.726Z,11.03
2018-02-19T18:19:05.357Z,11.43
2018-02-19T18:21:32.943Z,12.57
2018-02-19T18:24:00.539Z,9.43
2018-02-19T18:26:28.243Z,11.47
2018-02-19T18:28:55.805Z,10.53
2018-02-19T18:31:23.404Z,9.13
2018-02-19T18:33:51.035Z,8.87
2018-02-19T18:36:18.646Z,8.00
2018-02-19T18:38:46.214Z,8.43
2018-02-19T18:41:13.842Z,8.23
2018-02-19T18:43:41.468Z,7.33
2018-02-19T18:46:09.093Z,8.50
2018-02-19T18:48:36.782Z,10.70
2018-02-19T18:51:04.370Z,8.73
2018-02-19T18:53:31.937Z,9.33
2018-02-19T18:55:59.549Z,8.77
2018-02-19T18:58:27.121Z,8.60
2018-02-19T19:00:54.694Z,9.30
2018-02-19T19:03:22.317Z,10.60
2018-02-19T19:05:49.951Z,9.37
2018-02-19T19:08:29.228Z,11.47
2018-02-19T19:10:56.868Z,10.63
2018-02-19T19:13:24.448Z,9.13
2018-02-19T19:15:52.139Z,9.10
2018-02-19T19:18:20.102Z,11.90
2018-02-19T19:20:47.762Z,12.10
2018-02-19T19:23:15.404Z,9.37
2018-02-19T19:25:42.983Z,8.13
2018-02-19T19:28:10.663Z,9.63
2018-02-19T19:30:38.271Z,11.87
2018-02-19T19:33:06.473Z,12.83
2018-02-19T19:35:34.084Z,10.53
2018-02-19T19:38:01.698Z,10.83
2018-02-19T19:40:30.034Z,11.30
2018-02-19T19:42:57.630Z,9.40
2018-02-19T19:45:25.278Z,10.97
2018-02-19T19:47:52.883Z,11.87
2018-02-19T19:50:20.484Z,10.77
2018-02-19T19:52:48.110Z,11.47
2018-02-19T19:55:15.734Z,11.43
2018-02-19T19:57:43.389Z,12.90
2018-02-19T20:00:11.047Z,12.20
2018-02-19T20:02:38.890Z,16.57
2018-02-19T20:05:06.444Z,14.97
2018-02-19T20:07:34.084Z,12.80
2018-02-19T20:10:01.707Z,12.33
2018-02-19T20:12:29.294Z,17.80
2018-02-19T20:14:56.959Z,16.27
2018-02-19T20:17:24.519Z,15.40
2018-02-19T20:19:52.202Z,15.77
2018-02-19T20:22:19.847Z,16.73
2018-02-19T20:24:47.470Z,14.93
2018-02-19T20:27:15.037Z,14.10
2018-02-19T20:29:42.657Z,15.27
2018-02-19T20:32:10.650Z,16.07
2018-02-19T20:34:38.267Z,14.70
2018-02-19T20:37:05.885Z,14.97
2018-02-19T20:39:34.411Z,15.37
2018-02-19T20:42:01.985Z,16.07
2018-02-19T20:44:29.635Z,15.27
2018-02-19T20:46:57.234Z,15.20
2018-02-19T20:49:24.846Z,14.97
2018-02-19T20:51:52.482Z,15.83
2018-02-19T20:54:20.198Z,15.63
2018-02-19T20:56:47.818Z,16.77
2018-02-19T20:59:15.498Z,16.17
2018-02-19T21:01:43.085Z,16.47
2018-02-19T21:04:10.707Z,16.07
2018-02-19T21:06:38.342Z,15.93
2018-02-19T21:09:05.948Z,15.27
2018-02-19T21:11:34.174Z,17.60
2018-02-19T21:14:01.823Z,17.63
2018-02-19T21:16:29.560Z,16.10
2018-02-19T21:18:57.129Z,15.23
2018-02-19T21:21:24.913Z,15.40
2018-02-19T21:23:52.498Z,14.83
2018-02-19T21:26:20.078Z,15.57
2018-02-19T21:28:47.808Z,15.03
2018-02-19T21:31:15.360Z,15.37
2018-02-19T21:33:43.012Z,14.20
2018-02-19T21:36:10.703Z,13.93
2018-02-19T21:38:38.275Z,13.90
2018-02-19T21:41:05.860Z,15.27
2018-02-19T21:43:33.480Z,14.50
2018-02-19T21:46:01.059Z,13.40
2018-02-19T21:48:28.697Z,14.27
2018-02-19T21:50:56.326Z,13.37
2018-02-19T21:53:23.971Z,13.47
2018-02-19T21:55:51.535Z,14.47
2018-02-19T21:58:19.165Z,14.37
2018-02-19T22:00:46.741Z,13.80
2018-02-19T22:03:14.308Z,13.17
2018-02-19T22:05:41.937Z,13.10
2018-02-19T22:08:09.524Z,13.00
2018-02-19T22:10:37.107Z,14.13
2018-02-19T22:13:04.755Z,13.83
2018-02-19T22:15:32.324Z,15.17
2018-02-19T22:18:00.007Z,14.03
2018-02-19T22:20:27.632Z,13.67
2018-02-19T22:22:55.739Z,13.13
2018-02-19T22:25:23.305Z,12.67
2018-02-19T22:27:52.535Z,13.90
2018-02-19T22:30:20.109Z,14.13
2018-02-19T22:32:47.885Z,12.27
2018-02-19T22:35:15.504Z,14.80
2018-02-19T22:37:43.106Z,15.13
2018-02-19T22:40:10.676Z,12.50
2018-02-19T22:42:38.305Z,14.07
2018-02-19T22:45:05.874Z,13.00
2018-02-19T22:47:33.461Z,15.30
2018-02-19T22:50:01.126Z,14.97
2018-02-19T22:52:28.757Z,14.73
2018-02-19T22:54:56.331Z,13.87
2018-02-19T22:57:23.973Z,14.07
2018-02-19T22:59:51.561Z,14.73
2018-02-19T23:02:19.721Z,13.60
2018-02-19T23:04:47.339Z,14.00
2018-02-19T23:07:14.950Z,14.07
2018-02-19T23:09:42.508Z,13.83
2018-02-19T23:12:10.144Z,13.60
2018-02-19T23:14:37.710Z,14.10
2018-02-19T23:17:05.299Z,13.67
2018-02-19T23:19:32.950Z,13.63
2018-02-19T23:22:00.529Z,14.00
2018-02-19T23:24:28.218Z,13.83
2018-02-19T23:26:55.846Z,14.87
2018-02-19T23:29:23.418Z,14.53
2018-02-19T23:31:51.534Z,14.53
2018-02-19T23:34:19.137Z,14.13
2018-02-19T23:36:46.712Z,13.50
2018-02-19T23:39:14.307Z,13.97
2018-02-19T23:41:41.951Z,13.47
2018-02-19T23:44:09.546Z,13.50
2018-02-19T23:47:15.264Z,14.30
2018-02-19T23:50:02.651Z,14.30
2018-02-19T23:52:40.575Z,14.80
2018-02-19T23:55:08.149Z,13.90
2018-02-19T23:57:35.748Z,14.40
